createdAt,value
2015-11-08T00:00:03.391Z,5.15
2015-11-08T00:00:15.798Z,5.09
2015-11-08T00:00:28.311Z,5.1
2015-11-08T00:00:40.686Z,5.15
2015-11-08T00:00:53.046Z,5.1
2015-11-08T00:01:05.405Z,5.08
2015-11-08T00:01:17.749Z,5.06
2015-11-08T00:01:30.126Z,5.06
2015-11-08T00:01:42.485Z,5.13
2015-11-08T00:01:54.126Z,5.1
2015-11-08T00:02:06.501Z,5.09
2015-11-08T00:02:18.860Z,5.16
2015-11-08T00:02:31.254Z,5.09
2015-11-08T00:02:43.629Z,5.05
2015-11-08T00:02:55.973Z,5.12
2015-11-08T00:03:08.348Z,5.08
2015-11-08T00:03:20.691Z,5.06
2015-11-08T00:03:33.054Z,5.12
2015-11-08T00:03:45.413Z,5.08
2015-11-08T00:03:57.069Z,5.15
2015-11-08T00:04:09.476Z,5.06
2015-11-08T00:04:21.851Z,5.1
2015-11-08T00:04:34.229Z,5.13
2015-11-08T00:04:46.588Z,5.13
2015-11-08T00:04:58.963Z,5.1
2015-11-08T00:05:11.307Z,5.08
2015-11-08T00:05:23.666Z,5.13
2015-11-08T00:05:36.044Z,5.1
2015-11-08T00:05:48.419Z,5.09
2015-11-08T00:06:00.778Z,5.15
2015-11-08T00:06:13.169Z,5.15
2015-11-08T00:06:25.562Z,5.08
2015-11-08T00:06:37.921Z,5.15
2015-11-08T00:06:50.280Z,5.13
2015-11-08T00:07:02.624Z,5.15
2015-11-08T00:07:14.984Z,5.1
2015-11-08T00:07:27.362Z,5.13
2015-11-08T00:07:39.721Z,5.15
2015-11-08T00:07:52.080Z,5.06
2015-11-08T00:08:04.455Z,5.15
2015-11-08T00:08:16.830Z,5.09
2015-11-08T00:08:29.239Z,5.1
2015-11-08T00:08:41.614Z,4.98
2015-11-08T00:08:53.989Z,5.09
2015-11-08T00:09:06.348Z,5.09
2015-11-08T00:09:18.707Z,5.13
2015-11-08T00:09:31.070Z,5
2015-11-08T00:09:43.429Z,5.1
2015-11-08T00:09:55.773Z,5.02
2015-11-08T00:10:08.132Z,4.95
2015-11-08T00:10:20.507Z,5.1
2015-11-08T00:10:32.871Z,5.03
2015-11-08T00:10:45.277Z,5.02
2015-11-08T00:10:57.636Z,4.98
2015-11-08T00:11:09.996Z,5.02
2015-11-08T00:11:22.339Z,5.02
2015-11-08T00:11:34.716Z,5
2015-11-08T00:11:47.076Z,5
2015-11-08T00:11:59.435Z,5.05
2015-11-08T00:12:11.107Z,5.08
2015-11-08T00:12:23.482Z,5.09
2015-11-08T00:12:35.890Z,5.03
2015-11-08T00:12:48.281Z,5.08
2015-11-08T00:13:00.640Z,5.03
2015-11-08T00:13:12.843Z,4.98
2015-11-08T00:13:24.484Z,5.02
2015-11-08T00:13:36.831Z,5.06
2015-11-08T00:13:49.190Z,4.98
2015-11-08T00:14:01.565Z,4.98
2015-11-08T00:14:13.940Z,4.97
2015-11-08T00:14:25.612Z,5
2015-11-08T00:14:38.006Z,4.98
2015-11-08T00:14:50.396Z,4.94
2015-11-08T00:15:02.756Z,5.02
2015-11-08T00:15:15.099Z,4.97
2015-11-08T00:15:26.756Z,5.09
2015-11-08T00:15:39.102Z,5
2015-11-08T00:15:51.462Z,5.02
2015-11-08T00:16:03.821Z,5
2015-11-08T00:16:16.196Z,4.95
2015-11-08T00:16:28.555Z,4.98
2015-11-08T00:16:40.949Z,5.02
2015-11-08T00:16:53.355Z,4.95
2015-11-08T00:17:05.715Z,5.02
2015-11-08T00:17:18.058Z,5.03
2015-11-08T00:17:30.418Z,5
2015-11-08T00:17:42.779Z,5.02
2015-11-08T00:17:55.139Z,4.97
2015-11-08T00:18:07.498Z,5
2015-11-08T00:18:19.857Z,4.98
2015-11-08T00:18:32.217Z,5.02
2015-11-08T00:18:44.596Z,5.03
2015-11-08T00:18:56.986Z,5.03
2015-11-08T00:19:09.346Z,5
2015-11-08T00:19:21.705Z,5.02
2015-11-08T00:19:34.064Z,4.97
2015-11-08T00:19:46.426Z,5.02
2015-11-08T00:19:58.801Z,5
2015-11-08T00:20:11.145Z,4.94
2015-11-08T00:20:23.504Z,4.94
2015-11-08T00:20:35.879Z,5.08
2015-11-08T00:20:47.538Z,4.98
2015-11-08T00:20:59.929Z,4.98
2015-11-08T00:21:12.304Z,4.98
2015-11-08T00:21:24.710Z,5
2015-11-08T00:21:37.056Z,5.02
2015-11-08T00:21:49.415Z,4.92
2015-11-08T00:22:01.775Z,5.08
2015-11-08T00:22:14.134Z,5.03
2015-11-08T00:22:26.493Z,4.97
2015-11-08T00:22:38.856Z,4.98
2015-11-08T00:22:51.231Z,5.03
2015-11-08T00:23:03.606Z,4.97
2015-11-08T00:23:15.981Z,5.02
2015-11-08T00:23:28.340Z,5.03
2015-11-08T00:23:40.973Z,5
2015-11-08T00:23:53.332Z,4.94
2015-11-08T00:24:05.676Z,4.98
2015-11-08T00:24:18.051Z,5.05
2015-11-08T00:24:30.426Z,5
2015-11-08T00:24:42.788Z,4.98
2015-11-08T00:24:55.163Z,5.02
2015-11-08T00:25:07.538Z,4.97
2015-11-08T00:25:19.928Z,4.92
2015-11-08T00:25:31.616Z,4.97
2015-11-08T00:25:44.009Z,5
2015-11-08T00:25:56.369Z,4.91
2015-11-08T00:26:08.728Z,4.92
2015-11-08T00:26:21.087Z,4.92
2015-11-08T00:26:33.447Z,4.9
2015-11-08T00:26:45.793Z,4.92
2015-11-08T00:26:58.152Z,4.95
2015-11-08T00:27:09.808Z,4.95
2015-11-08T00:27:22.199Z,4.94
2015-11-08T00:27:34.574Z,4.91
2015-11-08T00:27:46.967Z,4.92
2015-11-08T00:27:59.342Z,4.88
2015-11-08T00:28:11.686Z,4.84
2015-11-08T00:28:24.061Z,4.9
2015-11-08T00:28:36.421Z,4.91
2015-11-08T00:28:48.783Z,4.85
2015-11-08T00:29:01.142Z,4.92
2015-11-08T00:29:12.783Z,4.85
2015-11-08T00:29:25.142Z,4.92
2015-11-08T00:29:37.517Z,4.85
2015-11-08T00:29:49.895Z,4.85
2015-11-08T00:30:02.286Z,4.87
2015-11-08T00:30:14.645Z,4.92
2015-11-08T00:30:26.989Z,4.85
2015-11-08T00:30:39.364Z,4.88
2015-11-08T00:30:51.711Z,4.97
2015-11-08T00:31:04.070Z,4.94
2015-11-08T00:31:16.430Z,4.91
2015-11-08T00:31:28.805Z,4.95
2015-11-08T00:31:41.166Z,4.95
2015-11-08T00:31:53.400Z,4.94
2015-11-08T00:32:05.807Z,4.98
2015-11-08T00:32:18.166Z,4.95
2015-11-08T00:32:30.541Z,4.97
2015-11-08T00:32:42.903Z,4.98
2015-11-08T00:32:55.263Z,4.91
2015-11-08T00:33:07.606Z,4.94
2015-11-08T00:33:19.966Z,4.88
2015-11-08T00:33:32.341Z,4.91
2015-11-08T00:33:44.719Z,5.02
2015-11-08T00:33:57.109Z,4.92
2015-11-08T00:34:09.484Z,4.9
2015-11-08T00:34:21.859Z,4.95
2015-11-08T00:34:34.219Z,4.95
2015-11-08T00:34:46.580Z,5.05
2015-11-08T00:34:58.940Z,4.94
2015-11-08T00:35:11.299Z,4.94
2015-11-08T00:35:23.658Z,4.98
2015-11-08T00:35:36.018Z,5.05
2015-11-08T00:35:48.380Z,4.91
2015-11-08T00:36:00.771Z,4.98
2015-11-08T00:36:13.130Z,4.91
2015-11-08T00:36:25.521Z,5
2015-11-08T00:36:37.896Z,5
2015-11-08T00:36:50.289Z,4.97
2015-11-08T00:37:02.649Z,4.91
2015-11-08T00:37:14.289Z,4.92
2015-11-08T00:37:26.649Z,4.98
2015-11-08T00:37:39.008Z,4.97
2015-11-08T00:37:51.651Z,5.05
2015-11-08T00:38:04.010Z,4.98
2015-11-08T00:38:16.369Z,5.02
2015-11-08T00:38:28.744Z,5.05
2015-11-08T00:38:41.119Z,4.98
2015-11-08T00:38:53.513Z,4.97
2015-11-08T00:39:05.904Z,5.02
2015-11-08T00:39:18.247Z,4.94
2015-11-08T00:39:30.607Z,5.05
2015-11-08T00:39:42.966Z,5
2015-11-08T00:39:55.313Z,4.94
2015-11-08T00:40:07.672Z,5.02
2015-11-08T00:40:20.032Z,4.94
2015-11-08T00:40:32.407Z,4.94
2015-11-08T00:40:44.782Z,5
2015-11-08T00:40:57.160Z,5.03
2015-11-08T00:41:09.535Z,5
2015-11-08T00:41:21.957Z,5
2015-11-08T00:41:34.300Z,5.05
2015-11-08T00:41:46.660Z,4.98
2015-11-08T00:41:59.006Z,5.02
2015-11-08T00:42:11.366Z,5
2015-11-08T00:42:23.725Z,4.94
2015-11-08T00:42:35.928Z,5.06
2015-11-08T00:42:48.288Z,4.95
2015-11-08T00:43:00.665Z,4.94
2015-11-08T00:43:13.040Z,5
2015-11-08T00:43:25.430Z,4.98
2015-11-08T00:43:37.790Z,4.98
2015-11-08T00:43:50.149Z,5.06
2015-11-08T00:44:02.511Z,4.98
2015-11-08T00:44:14.855Z,5.03
2015-11-08T00:44:27.230Z,5
2015-11-08T00:44:39.590Z,4.97
2015-11-08T00:44:51.952Z,5.03
2015-11-08T00:45:04.311Z,4.98
2015-11-08T00:45:16.686Z,5.05
2015-11-08T00:45:29.061Z,4.97
2015-11-08T00:45:41.311Z,5.02
2015-11-08T00:45:53.705Z,5
2015-11-08T00:46:06.064Z,4.97
2015-11-08T00:46:18.424Z,4.94
2015-11-08T00:46:30.767Z,4.98
2015-11-08T00:46:42.986Z,5
2015-11-08T00:46:55.349Z,5.02
2015-11-08T00:47:07.692Z,5.02
2015-11-08T00:47:20.052Z,5
2015-11-08T00:47:32.427Z,4.97
2015-11-08T00:47:44.833Z,4.95
2015-11-08T00:47:57.069Z,5
2015-11-08T00:48:09.460Z,5.08
2015-11-08T00:48:21.819Z,5.03
2015-11-08T00:48:34.163Z,5
2015-11-08T00:48:46.522Z,5.02
2015-11-08T00:48:58.899Z,5.08
2015-11-08T00:49:11.274Z,5.08
2015-11-08T00:49:23.618Z,4.97
2015-11-08T00:49:35.978Z,5.02
2015-11-08T00:49:47.649Z,5.03
2015-11-08T00:50:00.060Z,5.06
2015-11-08T00:50:12.435Z,5
2015-11-08T00:50:24.841Z,5.03
2015-11-08T00:50:37.200Z,5
2015-11-08T00:50:49.544Z,5.08
2015-11-08T00:51:01.921Z,4.97
2015-11-08T00:51:14.265Z,4.97
2015-11-08T00:51:26.624Z,5.02
2015-11-08T00:51:38.984Z,5.02
2015-11-08T00:51:51.359Z,5
2015-11-08T00:52:03.720Z,5
2015-11-08T00:52:16.111Z,4.88
2015-11-08T00:52:28.486Z,5.02
2015-11-08T00:52:40.845Z,4.98
2015-11-08T00:52:53.204Z,5.05
2015-11-08T00:53:05.411Z,4.98
2015-11-08T00:53:17.771Z,4.91
2015-11-08T00:53:30.146Z,4.91
2015-11-08T00:53:42.521Z,4.91
2015-11-08T00:53:54.911Z,4.97
2015-11-08T00:54:07.273Z,4.94
2015-11-08T00:54:19.632Z,4.91
2015-11-08T00:54:31.992Z,4.92
2015-11-08T00:54:44.351Z,4.9
2015-11-08T00:54:56.695Z,4.88
2015-11-08T00:55:08.354Z,4.98
2015-11-08T00:55:20.698Z,4.94
2015-11-08T00:55:33.088Z,4.92
2015-11-08T00:55:45.463Z,4.94
2015-11-08T00:55:57.870Z,4.91
2015-11-08T00:56:10.248Z,4.9
2015-11-08T00:56:22.654Z,5
2015-11-08T00:56:34.888Z,4.9
2015-11-08T00:56:47.232Z,4.9
2015-11-08T00:56:59.591Z,4.94
2015-11-08T00:57:11.953Z,4.92
2015-11-08T00:57:24.296Z,4.91
2015-11-08T00:57:35.937Z,4.95
2015-11-08T00:57:48.296Z,4.98
2015-11-08T00:58:00.359Z,4.91
2015-11-08T00:58:12.753Z,4.91
2015-11-08T00:58:25.128Z,4.94
2015-11-08T00:58:37.534Z,4.97
2015-11-08T00:58:49.940Z,4.97
2015-11-08T00:59:02.299Z,4.91
2015-11-08T00:59:14.645Z,4.98
2015-11-08T00:59:27.020Z,4.92
2015-11-08T00:59:39.380Z,4.9
2015-11-08T00:59:51.739Z,4.94
2015-11-08T01:00:04.118Z,4.88
2015-11-08T01:00:16.477Z,4.94
2015-11-08T01:00:28.134Z,4.98
2015-11-08T01:00:40.509Z,4.92
2015-11-08T01:00:52.899Z,4.97
2015-11-08T01:01:05.292Z,4.97
2015-11-08T01:01:17.667Z,4.97
2015-11-08T01:01:30.026Z,4.94
2015-11-08T01:01:42.386Z,4.94
2015-11-08T01:01:54.729Z,4.87
2015-11-08T01:02:07.076Z,4.94
2015-11-08T01:02:19.451Z,4.92
2015-11-08T01:02:31.810Z,4.92
2015-11-08T01:02:44.170Z,4.9
2015-11-08T01:02:56.545Z,4.95
2015-11-08T01:03:08.923Z,4.92
2015-11-08T01:03:21.298Z,4.94
2015-11-08T01:03:33.673Z,4.95
2015-11-08T01:03:46.032Z,4.94
2015-11-08T01:03:58.392Z,4.97
2015-11-08T01:04:10.737Z,4.95
2015-11-08T01:04:23.097Z,4.95
2015-11-08T01:04:35.440Z,4.91
2015-11-08T01:04:47.800Z,4.92
2015-11-08T01:05:00.159Z,4.94
2015-11-08T01:05:11.850Z,5
2015-11-08T01:05:23.506Z,4.88
2015-11-08T01:05:35.912Z,4.87
2015-11-08T01:05:48.256Z,4.91
2015-11-08T01:06:00.615Z,4.95
2015-11-08T01:06:12.993Z,4.92
2015-11-08T01:06:25.337Z,4.9
2015-11-08T01:06:37.696Z,4.94
2015-11-08T01:06:50.056Z,4.92
2015-11-08T01:07:02.431Z,4.92
2015-11-08T01:07:14.793Z,4.87
2015-11-08T01:07:27.184Z,4.83
2015-11-08T01:07:39.574Z,4.88
2015-11-08T01:07:51.965Z,4.9
2015-11-08T01:08:04.324Z,4.9
2015-11-08T01:08:15.967Z,4.92
2015-11-08T01:08:28.326Z,4.88
2015-11-08T01:08:40.686Z,4.84
2015-11-08T01:08:53.045Z,4.87
2015-11-08T01:09:05.405Z,4.87
2015-11-08T01:09:17.783Z,4.79
2015-11-08T01:09:30.158Z,4.83
2015-11-08T01:09:42.548Z,4.84
2015-11-08T01:09:54.923Z,4.88
2015-11-08T01:10:07.283Z,4.92
2015-11-08T01:10:19.644Z,4.87
2015-11-08T01:10:32.003Z,4.95
2015-11-08T01:10:44.347Z,4.85
2015-11-08T01:10:56.706Z,4.87
2015-11-08T01:11:09.081Z,4.85
2015-11-08T01:11:21.444Z,4.9
2015-11-08T01:11:33.819Z,4.91
2015-11-08T01:11:46.194Z,4.88
2015-11-08T01:11:58.600Z,4.92
2015-11-08T01:12:10.944Z,4.9
2015-11-08T01:12:23.306Z,4.91
2015-11-08T01:12:35.666Z,4.84
2015-11-08T01:12:48.025Z,4.92
2015-11-08T01:13:00.384Z,4.88
2015-11-08T01:13:12.744Z,4.9
2015-11-08T01:13:25.122Z,4.92
2015-11-08T01:13:36.794Z,4.9
2015-11-08T01:13:49.169Z,4.91
2015-11-08T01:14:01.559Z,4.83
2015-11-08T01:14:13.965Z,4.87
2015-11-08T01:14:26.328Z,4.78
2015-11-08T01:14:38.687Z,4.84
2015-11-08T01:14:51.047Z,4.84
2015-11-08T01:15:03.406Z,4.79
2015-11-08T01:15:15.765Z,4.76
2015-11-08T01:15:28.128Z,4.84
2015-11-08T01:15:40.487Z,4.84
2015-11-08T01:15:52.862Z,4.79
2015-11-08T01:16:05.221Z,4.78
2015-11-08T01:16:17.612Z,4.78
2015-11-08T01:16:29.989Z,4.76
2015-11-08T01:16:42.348Z,4.74
2015-11-08T01:16:53.989Z,4.85
2015-11-08T01:17:06.348Z,4.84
2015-11-08T01:17:18.708Z,4.83
2015-11-08T01:17:31.070Z,4.78
2015-11-08T01:17:43.430Z,4.83
2015-11-08T01:17:55.789Z,4.76
2015-11-08T01:18:08.164Z,4.78
2015-11-08T01:18:20.542Z,4.78
2015-11-08T01:18:32.917Z,4.75
2015-11-08T01:18:45.276Z,4.74
2015-11-08T01:18:57.636Z,4.75
2015-11-08T01:19:09.995Z,4.75
2015-11-08T01:19:22.341Z,4.76
2015-11-08T01:19:34.716Z,4.78
2015-11-08T01:19:47.091Z,4.83
2015-11-08T01:19:59.481Z,4.74
2015-11-08T01:20:11.856Z,4.85
2015-11-08T01:20:24.219Z,4.75
2015-11-08T01:20:36.563Z,4.71
2015-11-08T01:20:48.922Z,4.61
2015-11-08T01:21:01.266Z,4.71
2015-11-08T01:21:13.625Z,4.72
2015-11-08T01:21:25.987Z,4.65
2015-11-08T01:21:38.347Z,4.68
2015-11-08T01:21:50.722Z,4.78
2015-11-08T01:22:03.097Z,4.76
2015-11-08T01:22:15.503Z,4.74
2015-11-08T01:22:27.865Z,4.69
2015-11-08T01:23:05.350Z,4.6
2015-11-08T01:23:17.819Z,4.79
2015-11-08T01:23:29.462Z,4.65
2015-11-08T01:23:41.822Z,4.71
2015-11-08T01:23:54.197Z,4.72
2015-11-08T01:24:06.572Z,4.74
2015-11-08T01:24:18.962Z,4.76
2015-11-08T01:24:31.370Z,4.78
2015-11-08T01:24:43.761Z,4.75
2015-11-08T01:24:56.120Z,4.71
2015-11-08T01:25:08.464Z,4.76
2015-11-08T01:25:20.824Z,4.58
2015-11-08T01:25:33.179Z,4.72
2015-11-08T01:25:45.538Z,4.68
2015-11-08T01:25:57.163Z,4.61
2015-11-08T01:26:09.523Z,4.72
2015-11-08T01:26:21.898Z,4.76
2015-11-08T01:26:34.243Z,4.72
2015-11-08T01:26:46.649Z,4.78
2015-11-08T01:26:59.024Z,4.72
2015-11-08T01:27:11.368Z,4.74
2015-11-08T01:27:23.727Z,4.75
2015-11-08T01:27:36.074Z,4.79
2015-11-08T01:27:48.449Z,4.79
2015-11-08T01:28:00.808Z,4.69
2015-11-08T01:28:13.168Z,4.74
2015-11-08T01:28:25.543Z,4.74
2015-11-08T01:28:37.904Z,4.72
2015-11-08T01:28:50.294Z,4.68
2015-11-08T01:29:02.685Z,4.74
2015-11-08T01:29:15.075Z,4.79
2015-11-08T01:29:27.435Z,4.72
2015-11-08T01:29:39.781Z,4.65
2015-11-08T01:29:52.141Z,4.78
2015-11-08T01:30:04.500Z,4.71
2015-11-08T01:30:16.859Z,4.75
2015-11-08T01:30:28.500Z,4.69
2015-11-08T01:30:40.849Z,4.66
2015-11-08T01:30:53.224Z,4.72
2015-11-08T01:31:05.615Z,4.75
2015-11-08T01:31:17.990Z,4.68
2015-11-08T01:31:30.381Z,4.75
2015-11-08T01:31:42.722Z,4.83
2015-11-08T01:31:55.082Z,4.76
2015-11-08T01:32:07.441Z,4.69
2015-11-08T01:32:19.800Z,4.76
2015-11-08T01:32:32.144Z,4.83
2015-11-08T01:32:44.359Z,4.71
2015-11-08T01:32:56.718Z,4.75
2015-11-08T01:33:09.093Z,4.65
2015-11-08T01:33:21.453Z,4.65
2015-11-08T01:33:33.839Z,4.66
2015-11-08T01:33:46.199Z,4.78
2015-11-08T01:33:58.558Z,4.87
2015-11-08T01:34:10.917Z,4.65
2015-11-08T01:34:23.277Z,4.78
2015-11-08T01:34:34.946Z,4.68
2015-11-08T01:34:47.321Z,4.76
2015-11-08T01:34:59.696Z,4.66
2015-11-08T01:35:12.086Z,4.74
2015-11-08T01:35:24.477Z,4.72
2015-11-08T01:35:36.851Z,4.72
2015-11-08T01:35:49.210Z,4.83
2015-11-08T01:36:01.570Z,4.68
2015-11-08T01:36:13.913Z,4.75
2015-11-08T01:36:26.273Z,4.72
2015-11-08T01:36:38.633Z,4.74
2015-11-08T01:36:50.993Z,4.68
2015-11-08T01:37:03.352Z,4.71
2015-11-08T01:37:15.008Z,4.78
2015-11-08T01:37:27.414Z,4.69
2015-11-08T01:37:39.805Z,4.78
2015-11-08T01:37:52.149Z,4.65
2015-11-08T01:38:04.508Z,4.83
2015-11-08T01:38:16.852Z,4.79
2015-11-08T01:38:29.196Z,4.71
2015-11-08T01:38:41.540Z,4.74
2015-11-08T01:38:53.900Z,4.69
2015-11-08T01:39:06.244Z,4.69
2015-11-08T01:39:18.619Z,4.78
2015-11-08T01:39:30.994Z,4.85
2015-11-08T01:39:43.401Z,4.68
2015-11-08T01:39:55.760Z,4.64
2015-11-08T01:40:08.104Z,4.75
2015-11-08T01:40:20.463Z,4.76
2015-11-08T01:40:32.823Z,4.75
2015-11-08T01:40:45.183Z,4.76
2015-11-08T01:40:57.558Z,4.69
2015-11-08T01:41:09.917Z,4.83
2015-11-08T01:41:22.308Z,4.75
2015-11-08T01:41:34.652Z,4.74
2015-11-08T01:41:47.013Z,4.71
2015-11-08T01:41:59.373Z,4.78
2015-11-08T01:42:11.732Z,4.74
2015-11-08T01:42:24.091Z,4.79
2015-11-08T01:42:36.466Z,4.76
2015-11-08T01:42:48.843Z,4.71
2015-11-08T01:43:01.234Z,4.76
2015-11-08T01:43:13.625Z,4.76
2015-11-08T01:43:25.984Z,4.78
2015-11-08T01:43:38.330Z,4.79
2015-11-08T01:43:50.705Z,4.85
2015-11-08T01:44:03.064Z,4.84
2015-11-08T01:44:14.705Z,4.84
2015-11-08T01:44:27.064Z,4.78
2015-11-08T01:44:39.425Z,4.74
2015-11-08T01:44:51.800Z,4.76
2015-11-08T01:45:04.175Z,4.84
2015-11-08T01:45:16.550Z,4.79
2015-11-08T01:45:28.941Z,4.79
2015-11-08T01:45:41.349Z,4.76
2015-11-08T01:45:53.756Z,4.83
2015-11-08T01:46:06.115Z,4.83
2015-11-08T01:46:18.459Z,4.79
2015-11-08T01:46:30.818Z,4.71
2015-11-08T01:46:43.180Z,4.78
2015-11-08T01:46:55.540Z,4.84
2015-11-08T01:47:07.899Z,4.75
2015-11-08T01:47:20.259Z,4.75
2015-11-08T01:47:32.634Z,4.84
2015-11-08T01:47:44.323Z,4.75
2015-11-08T01:47:56.714Z,4.72
2015-11-08T01:48:09.089Z,4.74
2015-11-08T01:48:21.432Z,4.78
2015-11-08T01:48:33.651Z,4.79
2015-11-08T01:48:46.013Z,4.83
2015-11-08T01:48:58.372Z,4.79
2015-11-08T01:49:10.731Z,4.72
2015-11-08T01:49:23.091Z,4.75
2015-11-08T01:49:35.450Z,4.74
2015-11-08T01:49:47.828Z,4.71
2015-11-08T01:50:00.219Z,4.75
2015-11-08T01:50:12.609Z,4.76
2015-11-08T01:50:25.000Z,4.75
2015-11-08T01:50:37.359Z,4.79
2015-11-08T01:50:49.721Z,4.83
2015-11-08T01:51:02.064Z,4.78
2015-11-08T01:51:14.424Z,4.76
2015-11-08T01:51:26.064Z,4.75
2015-11-08T01:51:38.424Z,4.72
2015-11-08T01:51:50.771Z,4.78
2015-11-08T01:52:03.161Z,4.76
2015-11-08T01:52:15.536Z,4.87
2015-11-08T01:52:27.927Z,4.87
2015-11-08T01:52:40.317Z,4.74
2015-11-08T01:52:52.679Z,4.84
2015-11-08T01:53:05.038Z,4.83
2015-11-08T01:53:17.398Z,4.76
2015-11-08T01:53:29.773Z,4.85
2015-11-08T01:53:42.132Z,4.71
2015-11-08T01:53:54.494Z,4.85
2015-11-08T01:54:06.854Z,4.75
2015-11-08T01:54:19.072Z,4.85
2015-11-08T01:54:31.432Z,4.75
2015-11-08T01:54:43.838Z,4.76
2015-11-08T01:54:56.232Z,4.68
2015-11-08T01:55:08.575Z,4.85
2015-11-08T01:55:20.935Z,4.68
2015-11-08T01:55:33.294Z,4.76
2015-11-08T01:55:45.654Z,4.65
2015-11-08T01:55:58.016Z,4.79
2015-11-08T01:56:10.391Z,4.68
2015-11-08T01:56:22.766Z,4.68
2015-11-08T01:56:35.157Z,4.72
2015-11-08T01:56:47.500Z,4.75
2015-11-08T01:56:59.863Z,4.64
2015-11-08T01:57:12.238Z,4.68
2015-11-08T01:57:24.581Z,4.83
2015-11-08T01:57:36.956Z,4.69
2015-11-08T01:57:49.316Z,4.65
2015-11-08T01:58:01.693Z,4.71
2015-11-08T01:58:14.083Z,4.69
2015-11-08T01:58:26.490Z,4.78
2015-11-08T01:58:38.849Z,4.68
2015-11-08T01:58:51.211Z,4.78
2015-11-08T01:59:03.571Z,4.68
2015-11-08T01:59:15.930Z,4.68
2015-11-08T01:59:28.274Z,4.75
2015-11-08T01:59:40.633Z,4.78
2015-11-08T01:59:52.996Z,4.61
2015-11-08T02:00:05.371Z,4.79
2015-11-08T02:00:17.746Z,4.83
2015-11-08T02:00:30.136Z,4.78
2015-11-08T02:00:42.496Z,4.72
2015-11-08T02:00:54.858Z,4.79
2015-11-08T02:01:07.217Z,4.75
2015-11-08T02:01:19.592Z,4.79
2015-11-08T02:01:31.936Z,4.79
2015-11-08T02:01:44.296Z,4.68
2015-11-08T02:01:56.657Z,4.65
2015-11-08T02:02:09.032Z,4.6
2015-11-08T02:02:21.391Z,4.78
2015-11-08T02:02:33.782Z,4.78
2015-11-08T02:02:46.173Z,4.69
2015-11-08T02:02:58.550Z,4.75
2015-11-08T02:03:10.909Z,4.72
2015-11-08T02:03:23.284Z,4.64
2015-11-08T02:03:35.628Z,4.71
2015-11-08T02:03:47.987Z,4.75
2015-11-08T02:04:00.349Z,4.64
2015-11-08T02:04:12.724Z,4.78
2015-11-08T02:04:25.084Z,4.68
2015-11-08T02:04:37.474Z,4.71
2015-11-08T02:04:49.834Z,4.71
2015-11-08T02:05:02.227Z,4.66
2015-11-08T02:05:14.618Z,4.65
2015-11-08T02:05:27.024Z,4.69
2015-11-08T02:05:39.384Z,4.72
2015-11-08T02:05:51.727Z,4.68
2015-11-08T02:06:04.090Z,4.71
2015-11-08T02:06:16.449Z,4.71
2015-11-08T02:06:28.809Z,4.66
2015-11-08T02:06:41.168Z,4.72
2015-11-08T02:06:53.527Z,4.68
2015-11-08T02:07:05.890Z,4.66
2015-11-08T02:07:18.265Z,4.71
2015-11-08T02:07:30.640Z,4.74
2015-11-08T02:07:43.077Z,4.68
2015-11-08T02:07:55.437Z,4.69
2015-11-08T02:08:07.799Z,4.57
2015-11-08T02:08:20.158Z,4.68
2015-11-08T02:08:32.502Z,4.57
2015-11-08T02:08:44.877Z,4.57
2015-11-08T02:08:57.221Z,4.69
2015-11-08T02:09:09.598Z,4.69
2015-11-08T02:09:21.973Z,4.74
2015-11-08T02:09:33.613Z,4.64
2015-11-08T02:09:46.004Z,4.69
2015-11-08T02:09:58.395Z,4.54
2015-11-08T02:10:10.804Z,4.69
2015-11-08T02:10:23.210Z,4.68
2015-11-08T02:10:35.570Z,4.68
2015-11-08T02:10:47.929Z,4.64
2015-11-08T02:11:00.288Z,4.69
2015-11-08T02:11:12.650Z,4.61
2015-11-08T02:11:25.009Z,4.64
2015-11-08T02:11:37.368Z,4.58
2015-11-08T02:11:49.743Z,4.6
2015-11-08T02:12:02.121Z,4.61
2015-11-08T02:12:14.512Z,4.54
2015-11-08T02:12:26.903Z,4.61
2015-11-08T02:12:39.293Z,4.56
2015-11-08T02:12:51.653Z,4.61
2015-11-08T02:13:03.281Z,4.64
2015-11-08T02:13:15.624Z,4.54
2015-11-08T02:13:28.015Z,4.6
2015-11-08T02:13:40.359Z,4.64
2015-11-08T02:13:52.703Z,4.64
2015-11-08T02:14:05.064Z,4.64
2015-11-08T02:14:17.423Z,4.68
2015-11-08T02:14:29.798Z,4.6
2015-11-08T02:14:42.173Z,4.6
2015-11-08T02:14:54.408Z,4.69
2015-11-08T02:15:06.786Z,4.54
2015-11-08T02:15:19.145Z,4.56
2015-11-08T02:15:31.489Z,4.64
2015-11-08T02:15:43.864Z,4.57
2015-11-08T02:15:56.223Z,4.56
2015-11-08T02:16:08.586Z,4.64
2015-11-08T02:16:20.961Z,4.53
2015-11-08T02:16:33.367Z,4.6
2015-11-08T02:16:45.757Z,4.64
2015-11-08T02:16:58.132Z,4.57
2015-11-08T02:17:10.509Z,4.61
2015-11-08T02:17:22.853Z,4.58
2015-11-08T02:17:35.228Z,4.65
2015-11-08T02:17:47.588Z,4.64
2015-11-08T02:18:00.009Z,4.6
2015-11-08T02:18:12.356Z,4.58
2015-11-08T02:18:24.731Z,4.6
2015-11-08T02:18:37.091Z,4.58
2015-11-08T02:18:49.466Z,4.61
2015-11-08T02:19:01.856Z,4.61
2015-11-08T02:19:14.265Z,4.51
2015-11-08T02:19:26.609Z,4.65
2015-11-08T02:19:38.828Z,4.57
2015-11-08T02:19:51.187Z,4.64
2015-11-08T02:20:02.828Z,4.6
2015-11-08T02:20:14.487Z,4.64
2015-11-08T02:20:26.847Z,4.61
2015-11-08T02:20:39.206Z,4.65
2015-11-08T02:20:51.581Z,4.6
2015-11-08T02:21:03.940Z,4.6
2015-11-08T02:21:16.334Z,4.56
2015-11-08T02:21:28.709Z,4.64
2015-11-08T02:21:41.068Z,4.57
2015-11-08T02:21:53.428Z,4.6
2015-11-08T02:22:05.771Z,4.56
2015-11-08T02:22:18.133Z,4.6
2015-11-08T02:22:30.477Z,4.64
2015-11-08T02:22:42.867Z,4.66
2015-11-08T02:22:55.227Z,4.66
2015-11-08T02:23:07.602Z,4.61
2015-11-08T02:23:19.981Z,4.65
2015-11-08T02:23:32.387Z,4.56
2015-11-08T02:23:44.777Z,4.57
2015-11-08T02:23:57.137Z,4.64
2015-11-08T02:24:09.496Z,4.68
2015-11-08T02:24:21.873Z,4.64
2015-11-08T02:24:34.076Z,4.64
2015-11-08T02:24:46.420Z,4.6
2015-11-08T02:24:58.795Z,4.66
2015-11-08T02:25:11.154Z,4.6
2015-11-08T02:25:23.375Z,4.66
2015-11-08T02:25:35.766Z,4.57
2015-11-08T02:25:48.156Z,4.68
2015-11-08T02:26:00.516Z,4.61
2015-11-08T02:26:12.863Z,4.6
2015-11-08T02:26:25.238Z,4.64
2015-11-08T02:26:37.581Z,4.61
2015-11-08T02:26:49.941Z,4.61
2015-11-08T02:27:02.316Z,4.66
2015-11-08T02:27:14.694Z,4.69
2015-11-08T02:27:26.912Z,4.64
2015-11-08T02:27:39.303Z,4.64
2015-11-08T02:27:51.694Z,4.51
2015-11-08T02:28:04.053Z,4.68
2015-11-08T02:28:16.414Z,4.56
2015-11-08T02:28:28.774Z,4.54
2015-11-08T02:28:41.118Z,4.64
2015-11-08T02:28:53.493Z,4.6
2015-11-08T02:29:05.852Z,4.6
2015-11-08T02:29:18.199Z,4.58
2015-11-08T02:29:30.574Z,4.56
2015-11-08T02:29:42.949Z,4.6
2015-11-08T02:29:55.339Z,4.64
2015-11-08T02:30:07.730Z,4.64
2015-11-08T02:30:20.109Z,4.6
2015-11-08T02:30:32.468Z,4.66
2015-11-08T02:30:44.828Z,4.64
2015-11-08T02:30:57.171Z,4.64
2015-11-08T02:31:09.546Z,4.53
2015-11-08T02:31:21.892Z,4.64
2015-11-08T02:31:34.267Z,4.6
2015-11-08T02:31:46.627Z,4.64
2015-11-08T02:31:59.002Z,4.66
2015-11-08T02:32:11.377Z,4.58
2015-11-08T02:32:23.769Z,4.64
2015-11-08T02:32:36.160Z,4.58
2015-11-08T02:32:48.519Z,4.64
2015-11-08T02:33:00.879Z,4.54
2015-11-08T02:33:13.238Z,4.61
2015-11-08T02:33:25.586Z,4.57
2015-11-08T02:33:37.945Z,4.56
2015-11-08T02:33:50.304Z,4.64
2015-11-08T02:34:02.664Z,4.57
2015-11-08T02:34:15.039Z,4.6
2015-11-08T02:34:27.416Z,4.61
2015-11-08T02:34:39.791Z,4.6
2015-11-08T02:34:52.197Z,4.6
2015-11-08T02:35:04.556Z,4.56
2015-11-08T02:35:16.916Z,4.58
2015-11-08T02:35:29.262Z,4.6
2015-11-08T02:35:41.621Z,4.61
2015-11-08T02:35:53.980Z,4.65
2015-11-08T02:36:06.340Z,4.6
2015-11-08T02:36:18.683Z,4.65
2015-11-08T02:36:31.077Z,4.56
2015-11-08T02:36:43.468Z,4.54
2015-11-08T02:36:55.843Z,4.61
2015-11-08T02:37:08.233Z,4.57
2015-11-08T02:37:20.593Z,4.54
2015-11-08T02:37:32.955Z,4.56
2015-11-08T02:37:45.299Z,4.61
2015-11-08T02:37:57.658Z,4.56
2015-11-08T02:38:10.002Z,4.57
2015-11-08T02:38:22.361Z,4.58
2015-11-08T02:38:34.739Z,4.58
2015-11-08T02:38:47.099Z,4.56
2015-11-08T02:38:59.474Z,4.54
2015-11-08T02:39:11.880Z,4.6
2015-11-08T02:39:24.242Z,4.54
2015-11-08T02:39:36.852Z,4.58
2015-11-08T02:39:49.211Z,4.57
2015-11-08T02:40:01.570Z,4.6
2015-11-08T02:40:13.930Z,4.56
2015-11-08T02:40:26.308Z,4.57
2015-11-08T02:40:38.698Z,4.57
2015-11-08T02:40:51.105Z,4.57
2015-11-08T02:41:03.464Z,4.58
2015-11-08T02:41:15.823Z,4.56
2015-11-08T02:41:28.185Z,4.66
2015-11-08T02:41:40.560Z,4.58
2015-11-08T02:41:52.935Z,4.53
2015-11-08T02:42:05.294Z,4.53
2015-11-08T02:42:17.685Z,4.51
2015-11-08T02:42:30.078Z,4.53
2015-11-08T02:42:42.469Z,4.47
2015-11-08T02:42:54.828Z,4.56
2015-11-08T02:43:07.188Z,4.48
2015-11-08T02:43:19.563Z,4.5
2015-11-08T02:43:31.924Z,4.48
2015-11-08T02:43:43.580Z,4.5
2015-11-08T02:43:55.928Z,4.51
2015-11-08T02:44:08.287Z,4.48
2015-11-08T02:44:20.662Z,4.5
2015-11-08T02:44:33.041Z,4.44
2015-11-08T02:44:44.713Z,4.54
2015-11-08T02:44:57.088Z,4.44
2015-11-08T02:45:09.479Z,4.38
2015-11-08T02:45:21.827Z,4.42
2015-11-08T02:45:34.188Z,4.4